Curlew, Washington
Current Conditions -  °F | °C
As of 11:53 PM on Tuesday 25 Nov 2014 (Local Time) from KOMK Reporting Station
Haze Haze  
Wind Chill: 32°   Ceiling: 4300
Heat Index: 32°   Visibility: 4mi
Dew Point: 31°   Wind: 0mph
Humidity: 96%   Direction: NA
Pressure: 30.21"   Gusts: NA
Location:  48.89°N, 118.6°W
Report Text: KOMK 260753Z AUTO 00000KT 4SM UP BR BKN043 OVC070 00/M01 A3021 RMK AO2 UPB38SNE38 SLP244 P0002 T00001006 400280000
Loading
Personal Weather Stations






























Interactive Weather Map New forecast layout! Learn more

10-Day Weather Forecast

Advertisements
Track Severe Weather on mobile